Time;durP1;ratioP1;P1;durP2;ratioP2;P2;SDS_P1;SDS_P2;PMS_P1;PMS_P2;Temp;Humidity;BMP_temperature;BMP_pressure;BME280_temperature;BME280_humidity;BME280_pressure;Samples;Min_cycle;Max_cycle;Signal;HPM_P1;HPM_P2
2022/01/04 00:00:22;;;;;;;10.90;6.28;;;;;;;7.90;93.68;100250.97;5012805;28;20385;-80
2022/01/04 00:02:48;;;;;;;9.40;5.60;;;;;;;7.90;93.36;100235.53;5014608;28;20037;-80
2022/01/04 00:05:13;;;;;;;10.40;6.05;;;;;;;7.67;93.23;100201.78;5014324;28;20049;-79
2022/01/04 00:07:39;;;;;;;11.10;6.25;;;;;;;7.80;93.27;100208.75;5014026;28;20030;-80
2022/01/04 00:10:08;;;;;;;10.48;6.40;;;;;;;7.83;93.17;100214.50;5013650;28;20029;-80
2022/01/04 00:15:17;;;;;;;10.55;6.93;;;;;;;7.79;93.25;100201.97;5014124;28;20500;-79
2022/01/04 00:17:43;;;;;;;10.30;6.88;;;;;;;7.86;93.54;100213.50;5013952;28;20038;-80
2022/01/04 00:20:09;;;;;;;9.48;6.22;;;;;;;7.59;93.28;100175.72;5014226;28;20367;-80
2022/01/04 00:22:35;;;;;;;12.88;6.88;;;;;;;7.71;93.25;100192.97;4996850;28;20057;-78
2022/01/04 00:25:00;;;;;;;10.73;6.75;;;;;;;7.77;93.14;100196.91;5014172;28;20196;-80
2022/01/04 00:27:26;;;;;;;11.50;6.78;;;;;;;7.75;93.49;100193.59;5013788;28;20029;-83
2022/01/04 00:29:51;;;;;;;8.48;5.82;;;;;;;7.74;93.28;100181.66;5014374;28;20133;-80
2022/01/04 00:32:17;;;;;;;10.50;5.55;;;;;;;7.79;93.33;100178.81;5013583;28;20022;-82
2022/01/04 00:34:43;;;;;;;11.50;5.93;;;;;;;7.68;93.43;100161.50;5012328;28;20096;-83
2022/01/04 00:37:09;;;;;;;11.07;5.93;;;;;;;7.71;93.44;100169.00;5013794;28;20583;-78
2022/01/04 00:39:34;;;;;;;9.25;6.20;;;;;;;7.69;93.55;100161.41;5012356;28;20041;-79
2022/01/04 00:42:00;;;;;;;13.18;6.47;;;;;;;7.71;93.50;100156.16;5013623;28;20022;-82
2022/01/04 00:44:26;;;;;;;8.07;5.60;;;;;;;7.53;93.66;100117.00;5013595;28;20030;-82
2022/01/04 00:46:51;;;;;;;11.93;6.18;;;;;;;7.71;93.52;100146.69;5013710;28;20030;-81
2022/01/04 00:49:17;;;;;;;8.98;6.03;;;;;;;7.61;93.51;100131.94;5013388;28;20022;-79
2022/01/04 00:51:50;;;;;;;12.57;6.22;;;;;;;7.67;93.51;100137.53;5013532;28;20083;-80
2022/01/04 00:54:19;;;;;;;9.20;5.75;;;;;;;7.49;93.52;100102.72;5013206;28;20072;-79
2022/01/04 00:56:45;;;;;;;11.40;6.88;;;;;;;7.65;93.42;100130.84;5013480;28;20038;-79
2022/01/04 00:59:11;;;;;;;8.43;5.75;;;;;;;7.71;93.35;100131.28;5013577;28;20075;-82
2022/01/04 01:17:16;;;;;;;11.27;6.18;;;;;;;6.43;93.00;99918.38;4656295;26;20075;-79
2022/01/04 01:20:03;;;;;;;9.20;5.32;;;;;;;7.70;93.02;100113.41;5034789;28;20199;-81
2022/01/04 01:22:29;;;;;;;7.97;5.50;;;;;;;7.08;92.98;100008.50;5052397;28;20437;-83
2022/01/04 01:24:54;;;;;;;8.00;5.45;;;;;;;7.55;92.97;100089.47;5052739;28;20060;-80
2022/01/04 01:27:19;;;;;;;8.60;5.57;;;;;;;7.54;92.94;100081.84;5052799;28;20029;-84
2022/01/04 01:29:45;;;;;;;9.88;5.45;;;;;;;7.43;93.38;100062.81;5052683;28;20032;-80
2022/01/04 01:32:10;;;;;;;8.95;5.57;;;;;;;7.36;93.16;100053.81;5052548;28;20036;-79
2022/01/04 01:34:36;;;;;;;10.20;5.32;;;;;;;7.66;93.14;100096.50;5052442;28;20100;-80
2022/01/04 01:37:01;;;;;;;7.72;5.20;;;;;;;7.29;93.21;100031.19;5052589;28;20075;-84
2022/01/04 01:39:27;;;;;;;9.95;5.78;;;;;;;7.63;93.16;100089.00;5052610;28;20029;-80
2022/01/04 01:41:52;;;;;;;9.90;5.82;;;;;;;7.51;93.24;100066.66;5052743;28;20029;-80
2022/01/04 01:44:17;;;;;;;8.13;5.65;;;;;;;7.58;93.00;100084.16;5052635;28;20048;-79
2022/01/04 01:46:43;;;;;;;8.98;5.50;;;;;;;7.38;93.45;100052.00;5052667;28;20025;-80
2022/01/04 01:49:08;;;;;;;12.88;6.82;;;;;;;7.48;93.25;100076.19;5052197;28;20020;-82
2022/01/04 01:51:34;;;;;;;10.70;6.22;;;;;;;7.48;93.44;100076.19;5018147;28;20572;-79
2022/01/04 01:53:59;;;;;;;9.25;5.35;;;;;;;7.25;93.81;100037.44;5052401;28;20067;-79
2022/01/04 01:56:25;;;;;;;11.00;6.07;;;;;;;7.45;93.88;100070.41;5052411;28;20029;-81
2022/01/04 01:58:50;;;;;;;10.60;5.43;;;;;;;7.42;93.95;100065.47;5052678;28;20033;-82
2022/01/04 02:01:16;;;;;;;10.98;6.25;;;;;;;7.32;93.83;100066.97;5052477;28;20036;-83
2022/01/04 02:03:42;;;;;;;10.18;5.70;;;;;;;7.23;94.18;100046.97;5052123;28;20064;-83
2022/01/04 02:06:07;;;;;;;11.85;6.47;;;;;;;7.28;94.29;100052.66;5052151;28;20057;-80
2022/01/04 02:08:33;;;;;;;9.82;6.05;;;;;;;7.15;94.31;100021.75;5052493;28;20036;-83
2022/01/04 02:10:59;;;;;;;10.10;6.50;;;;;;;7.33;94.29;100048.06;5052500;28;20147;-84
2022/01/04 02:13:25;;;;;;;11.35;7.10;;;;;;;7.22;93.85;100017.09;5052689;28;20033;-83
2022/01/04 02:15:52;;;;;;;10.57;6.70;;;;;;;7.16;93.85;100000.28;5052449;28;20358;-84
2022/01/04 02:18:17;;;;;;;9.52;6.18;;;;;;;7.46;93.91;100047.19;5051919;28;20087;-84
2022/01/04 02:20:43;;;;;;;11.05;7.03;;;;;;;7.48;93.68;100027.38;5052045;28;20060;-84
2022/01/04 02:23:08;;;;;;;10.90;7.13;;;;;;;7.37;93.77;100004.09;5051045;28;20033;-84
2022/01/04 02:25:33;;;;;;;11.82;6.78;;;;;;;7.49;93.73;100015.38;5052256;28;20036;-84
2022/01/04 02:27:59;;;;;;;12.48;6.80;;;;;;;7.42;93.57;100014.09;5052048;28;20075;-83
2022/01/04 02:30:25;;;;;;;13.02;6.93;;;;;;;7.46;93.22;100021.50;5052286;28;20029;-83
2022/01/04 02:32:51;;;;;;;13.68;7.20;;;;;;;6.33;93.45;99840.38;5052310;28;20020;-82
2022/01/04 02:35:23;;;;;;;10.60;6.53;;;;;;;7.50;93.55;100026.47;5037733;28;20473;-84
2022/01/04 02:37:49;;;;;;;14.43;6.45;;;;;;;7.48;93.39;100024.00;5056020;28;20142;-84
2022/01/04 02:40:15;;;;;;;9.55;6.75;;;;;;;7.47;93.45;100018.03;5055713;28;20079;-83
2022/01/04 02:42:41;;;;;;;10.57;6.28;;;;;;;7.27;93.41;99981.66;5056102;28;20033;-83
2022/01/04 02:45:08;;;;;;;10.45;6.03;;;;;;;7.35;93.26;99990.53;5055662;28;20017;-82
2022/01/04 02:47:34;;;;;;;10.30;6.28;;;;;;;7.37;93.14;99988.69;5055857;28;20024;-83
2022/01/04 02:49:59;;;;;;;10.95;6.28;;;;;;;7.48;93.06;99993.16;5055511;28;20025;-83
2022/01/04 02:52:24;;;;;;;8.43;5.63;;;;;;;7.28;93.08;99960.22;5055663;28;20518;-84
2022/01/04 02:54:50;;;;;;;9.85;5.82;;;;;;;7.28;93.05;99965.34;5055659;28;20112;-84
2022/01/04 02:57:15;;;;;;;9.50;6.22;;;;;;;7.46;92.96;99994.97;5055781;28;20078;-83
2022/01/04 02:59:41;;;;;;;9.65;5.95;;;;;;;7.47;93.06;99991.50;5055491;28;20037;-83
2022/01/04 03:02:06;;;;;;;9.98;6.07;;;;;;;7.47;93.17;99983.78;5055565;28;20029;-84
2022/01/04 03:04:31;;;;;;;9.40;6.22;;;;;;;7.44;93.02;99976.28;5055274;28;20082;-84
2022/01/04 03:06:57;;;;;;;8.98;5.85;;;;;;;7.40;92.79;99964.56;5055317;28;20033;-84
2022/01/04 03:09:23;;;;;;;10.55;6.03;;;;;;;7.41;93.22;99967.03;5055378;28;20032;-84
2022/01/04 03:11:49;;;;;;;11.05;6.47;;;;;;;7.28;93.08;99953.34;5055367;28;20032;-83
2022/01/04 03:14:14;;;;;;;10.43;6.35;;;;;;;7.43;92.92;99969.50;5055206;28;20033;-83
2022/01/04 03:16:39;;;;;;;11.27;6.05;;;;;;;7.15;93.18;99913.94;5055144;28;20072;-84
2022/01/04 03:19:09;;;;;;;10.07;5.80;;;;;;;7.41;93.00;99958.50;5055269;28;20362;-83
2022/01/04 03:21:43;;;;;;;12.20;6.22;;;;;;;7.39;92.79;99952.66;5054914;28;20031;-83
2022/01/04 03:24:12;;;;;;;12.68;6.90;;;;;;;7.32;93.03;99935.97;5054999;28;20361;-84
2022/01/04 03:26:37;;;;;;;10.88;6.45;;;;;;;7.38;92.81;99933.03;5055107;28;20380;-82
2022/01/04 03:29:05;;;;;;;11.98;6.97;;;;;;;7.38;93.13;99930.47;5054886;28;20024;-84
2022/01/04 03:31:30;;;;;;;11.52;7.07;;;;;;;7.36;92.98;99927.97;5054977;28;20032;-83
2022/01/04 03:33:58;;;;;;;12.63;7.30;;;;;;;7.05;92.93;99871.78;5054955;28;20029;-83
2022/01/04 03:36:24;;;;;;;12.82;7.32;;;;;;;6.98;92.54;99855.97;5045840;23;20050;-84
2022/01/04 03:38:55;;;;;;;11.18;6.63;;;;;;;6.96;92.96;99841.56;5015085;28;20026;-83
2022/01/04 03:41:23;;;;;;;11.90;7.47;;;;;;;7.16;92.81;99872.75;5015004;28;20033;-82
2022/01/04 03:43:49;;;;;;;13.38;7.93;;;;;;;7.02;92.72;99839.44;5014930;28;20033;-83
2022/01/04 03:46:15;;;;;;;15.05;8.55;;;;;;;7.36;92.92;99880.91;5013728;28;20022;-83
2022/01/04 03:48:40;;;;;;;13.70;7.93;;;;;;;7.33;92.96;99871.66;5014841;28;20037;-84
2022/01/04 03:51:07;;;;;;;14.07;8.52;;;;;;;7.26;92.86;99865.28;5014470;28;20500;-83
2022/01/04 03:53:33;;;;;;;12.45;7.43;;;;;;;7.04;92.80;99826.50;5014817;28;20476;-84
2022/01/04 03:55:58;;;;;;;13.27;7.43;;;;;;;7.31;92.86;99868.38;5014807;28;20108;-83
2022/01/04 03:58:24;;;;;;;14.00;7.47;;;;;;;7.32;92.74;99867.47;5014881;28;20462;-84
2022/01/04 04:00:49;;;;;;;14.88;7.82;;;;;;;7.26;93.05;99849.03;5014589;28;20025;-82
2022/01/04 04:03:15;;;;;;;14.02;6.93;;;;;;;7.29;92.79;99854.81;5014400;28;20030;-82
2022/01/04 04:05:41;;;;;;;11.68;7.20;;;;;;;7.28;92.67;99847.22;5014292;28;20028;-84
2022/01/04 04:08:06;;;;;;;14.05;7.10;;;;;;;6.88;92.83;99780.47;5014389;28;20041;-83
2022/01/04 04:10:32;;;;;;;10.18;6.30;;;;;;;7.30;93.15;99850.50;5014532;28;20029;-83
2022/01/04 04:12:57;;;;;;;13.15;6.50;;;;;;;7.24;93.05;99835.50;5014650;28;20433;-83
2022/01/04 04:15:23;;;;;;;11.82;6.63;;;;;;;7.27;92.95;99845.56;5012827;28;20037;-84
2022/01/04 04:17:48;;;;;;;13.25;7.00;;;;;;;7.02;92.80;99800.13;5014349;28;20104;-82
2022/01/04 04:20:14;;;;;;;14.20;7.03;;;;;;;7.05;93.11;99794.78;5014140;28;20099;-83
2022/01/04 04:22:39;;;;;;;12.43;6.95;;;;;;;7.23;93.02;99824.41;5013915;28;20026;-83
2022/01/04 04:25:05;;;;;;;11.82;6.53;;;;;;;7.23;93.08;99814.13;5014146;28;20022;-81
2022/01/04 04:27:30;;;;;;;11.23;6.70;;;;;;;7.16;93.23;99806.00;5013928;28;20044;-82
2022/01/04 04:29:55;;;;;;;11.75;7.03;;;;;;;7.00;92.83;99771.16;5014277;28;20044;-80
2022/01/04 04:32:21;;;;;;;12.45;6.38;;;;;;;7.22;93.02;99815.06;5014193;28;20037;-83
2022/01/04 04:34:47;;;;;;;13.15;7.00;;;;;;;7.24;93.09;99813.19;5014002;28;20040;-83
2022/01/04 04:37:12;;;;;;;13.35;6.82;;;;;;;7.21;93.09;99818.53;5013527;28;20438;-80
2022/01/04 04:39:37;;;;;;;11.80;7.07;;;;;;;7.08;93.07;99798.00;5013868;28;20432;-83
2022/01/04 04:42:03;;;;;;;12.68;6.50;;;;;;;6.82;92.82;99743.22;5014006;28;20046;-82
2022/01/04 04:44:28;;;;;;;14.63;6.82;;;;;;;7.10;92.71;99796.13;5013660;28;20034;-83
2022/01/04 04:46:54;;;;;;;14.13;7.47;;;;;;;7.03;92.88;99781.22;5013727;28;20141;-80
2022/01/04 04:49:19;;;;;;;11.73;7.30;;;;;;;7.11;93.12;99792.66;5013717;28;20119;-82
2022/01/04 04:51:44;;;;;;;14.75;8.38;;;;;;;7.02;93.05;99772.72;5012067;28;20049;-82
2022/01/04 04:54:10;;;;;;;13.07;7.03;;;;;;;7.27;93.38;99812.16;5013624;28;20169;-84
2022/01/04 04:56:38;;;;;;;11.70;7.28;;;;;;;7.06;93.00;99791.28;5013489;28;20037;-83
2022/01/04 04:59:05;;;;;;;13.82;7.65;;;;;;;7.04;93.00;99775.16;5013703;28;20018;-83
2022/01/04 05:01:30;;;;;;;14.02;8.02;;;;;;;7.22;92.99;99811.66;5013595;28;20030;-82
2022/01/04 05:03:55;;;;;;;13.60;7.40;;;;;;;7.21;93.11;99815.16;5013814;28;20057;-81
2022/01/04 05:06:23;;;;;;;14.13;7.53;;;;;;;7.01;92.96;99777.94;5012143;28;20034;-83
2022/01/04 05:08:49;;;;;;;13.18;7.72;;;;;;;7.15;92.94;99795.81;5013103;28;20497;-83
2022/01/04 05:11:14;;;;;;;13.68;7.65;;;;;;;6.94;93.16;99764.69;5013441;28;20033;-84
2022/01/04 05:13:40;;;;;;;16.65;8.93;;;;;;;7.08;93.44;99798.00;5013590;28;20052;-84
2022/01/04 05:16:07;;;;;;;14.27;8.60;;;;;;;6.98;93.19;99794.38;5013591;28;20038;-83
2022/01/04 05:18:33;;;;;;;14.20;8.52;;;;;;;6.32;93.11;99670.34;5013351;28;20056;-82
2022/01/04 05:20:58;;;;;;;15.30;7.90;;;;;;;6.94;93.59;99762.13;5013231;28;20050;-83
2022/01/04 05:23:23;;;;;;;14.70;7.93;;;;;;;6.98;93.56;99768.72;5011506;28;20033;-84
2022/01/04 05:25:49;;;;;;;11.70;7.53;;;;;;;7.12;93.42;99778.88;5013225;28;20493;-82
2022/01/04 05:28:14;;;;;;;13.38;7.65;;;;;;;7.04;93.71;99767.47;5012876;28;20038;-79
2022/01/04 05:30:39;;;;;;;14.95;8.10;;;;;;;7.12;93.73;99786.59;5013140;28;20026;-82
2022/01/04 05:33:10;;;;;;;15.15;8.13;;;;;;;7.13;93.96;99783.09;5013159;28;20113;-82
2022/01/04 05:35:36;;;;;;;15.68;9.02;;;;;;;7.12;94.25;99770.38;5012925;28;20033;-82
2022/01/04 06:03:53;;;;;;;18.45;9.57;;;;;;;6.98;95.50;99750.75;5050145;28;20060;-80
2022/01/04 06:06:19;;;;;;;20.33;10.18;;;;;;;7.03;95.31;99750.44;5034698;28;20029;-81
2022/01/04 06:08:45;;;;;;;21.55;10.77;;;;;;;7.02;95.45;99747.03;5053274;28;20022;-78
2022/01/04 06:11:29;;;;;;;16.95;9.60;;;;;;;6.86;95.62;99713.03;5056288;28;20100;-80
2022/01/04 06:16:38;;;;;;;17.98;9.90;;;;;;;6.89;95.83;99705.97;5056568;28;20032;-82
2022/01/04 06:19:04;;;;;;;20.90;10.55;;;;;;;7.01;95.49;99727.44;5056269;28;20025;-81
2022/01/04 06:21:29;;;;;;;19.58;10.25;;;;;;;6.95;95.67;99717.56;5056033;28;20476;-79
2022/01/04 06:23:54;;;;;;;19.73;10.27;;;;;;;6.99;95.85;99713.06;5056827;23;21146;-82
2022/01/04 06:26:20;;;;;;;18.38;10.55;;;;;;;6.89;95.50;99702.56;5016422;28;20381;-82
2022/01/04 06:28:45;;;;;;;22.23;10.63;;;;;;;7.00;96.16;99723.22;5016019;28;20048;-81
2022/01/04 06:31:10;;;;;;;21.35;10.38;;;;;;;7.00;96.02;99725.78;5016316;28;20030;-80
2022/01/04 06:33:36;;;;;;;18.80;10.70;;;;;;;6.80;96.18;99709.13;4998832;28;20075;-81
2022/01/04 06:36:01;;;;;;;18.52;10.50;;;;;;;6.97;96.70;99733.66;5016283;28;20030;-81
2022/01/04 06:38:26;;;;;;;19.38;10.73;;;;;;;6.95;97.21;99732.13;5016136;28;20096;-83
2022/01/04 06:40:51;;;;;;;18.45;11.25;;;;;;;6.86;97.52;99723.28;5016151;28;20018;-79
2022/01/04 06:43:17;;;;;;;19.02;10.45;;;;;;;6.85;97.60;99713.94;5016153;28;20428;-79
2022/01/04 06:45:42;;;;;;;21.38;10.82;;;;;;;6.65;97.94;99694.72;5015950;28;20080;-80
2022/01/04 06:48:07;;;;;;;20.33;11.15;;;;;;;6.78;98.53;99721.22;5016238;28;20029;-82
2022/01/04 06:50:33;;;;;;;19.58;11.13;;;;;;;6.79;98.96;99724.63;5014332;28;20061;-79
2022/01/04 06:52:59;;;;;;;20.25;11.07;;;;;;;6.59;98.45;99677.19;5016207;28;20053;-79
2022/01/04 06:55:24;;;;;;;20.70;10.98;;;;;;;6.80;98.70;99710.88;5015882;28;20026;-78
2022/01/04 06:57:50;;;;;;;20.40;11.02;;;;;;;6.53;98.61;99657.88;5015825;28;20034;-76
2022/01/04 07:00:16;;;;;;;22.10;10.95;;;;;;;6.60;98.75;99660.88;5014516;28;20440;-83
2022/01/04 07:02:41;;;;;;;21.65;11.15;;;;;;;6.73;98.71;99684.78;5015830;28;20096;-81
2022/01/04 07:05:07;;;;;;;20.40;11.00;;;;;;;6.81;98.78;99700.50;5016049;28;20045;-81
2022/01/04 07:07:32;;;;;;;20.98;10.75;;;;;;;6.75;98.88;99679.56;5015698;28;20034;-83
2022/01/04 07:09:58;;;;;;;20.25;11.05;;;;;;;6.81;98.63;99684.28;5015545;28;20112;-81
2022/01/04 07:12:23;;;;;;;20.85;11.90;;;;;;;6.36;98.48;99608.59;4997163;28;20109;-85
2022/01/04 07:14:48;;;;;;;20.70;11.57;;;;;;;6.83;98.84;99672.19;4996635;28;20031;-83
2022/01/04 07:17:14;;;;;;;22.95;12.02;;;;;;;6.83;98.44;99682.44;4996072;28;20466;-82
2022/01/04 07:19:39;;;;;;;22.55;12.40;;;;;;;6.50;98.58;99632.44;4996745;28;20053;-84
2022/01/04 07:22:08;;;;;;;22.55;12.43;;;;;;;6.85;98.30;99670.31;5010688;28;20580;-80
2022/01/04 07:24:33;;;;;;;22.88;12.43;;;;;;;6.71;98.19;99639.63;5003601;28;20042;-80
2022/01/04 07:26:59;;;;;;;21.90;13.30;;;;;;;6.89;98.39;99664.91;5015271;28;20033;-79
2022/01/04 07:29:24;;;;;;;22.02;12.48;;;;;;;6.90;98.39;99665.72;5013098;28;20046;-80
2022/01/04 07:31:49;;;;;;;22.88;13.68;;;;;;;6.67;98.07;99612.53;5015050;28;20041;-85
2022/01/04 07:34:15;;;;;;;23.30;13.45;;;;;;;6.58;97.98;99588.31;5015150;28;20073;-84
2022/01/04 07:36:40;;;;;;;22.90;12.90;;;;;;;6.91;97.93;99636.56;5014896;28;20037;-83
2022/01/04 07:39:06;;;;;;;24.73;14.30;;;;;;;6.63;98.12;99588.00;5015086;28;20034;-82
2022/01/04 07:41:31;;;;;;;25.38;13.27;;;;;;;6.85;97.98;99630.09;5014533;28;20033;-75
2022/01/04 07:43:56;;;;;;;22.23;12.75;;;;;;;6.90;98.05;99640.88;5013714;28;20033;-81
2022/01/04 07:46:23;;;;;;;21.30;13.18;;;;;;;6.90;98.00;99635.75;4997790;28;20111;-81
2022/01/04 07:48:50;;;;;;;23.83;13.30;;;;;;;6.91;98.15;99644.28;5014679;28;20072;-81
2022/01/04 07:51:16;;;;;;;22.40;12.95;;;;;;;6.74;98.29;99629.16;5014942;28;20026;-78
2022/01/04 07:53:41;;;;;;;21.30;12.38;;;;;;;6.78;98.20;99631.41;5013441;28;20032;-77
2022/01/04 07:56:07;;;;;;;23.27;13.13;;;;;;;6.82;98.13;99645.69;5014217;28;20026;-79
2022/01/04 07:58:33;;;;;;;21.75;13.15;;;;;;;6.94;98.04;99658.63;5014493;28;20496;-79
2022/01/04 08:00:58;;;;;;;25.13;13.75;;;;;;;6.96;98.05;99667.03;5014549;28;20157;-77
2022/01/04 08:03:27;;;;;;;23.45;12.93;;;;;;;6.48;98.00;99580.38;5014571;28;20034;-77
2022/01/04 08:05:52;;;;;;;29.10;14.05;;;;;;;6.53;97.76;99585.25;5014509;28;20470;-79
2022/01/04 08:08:20;;;;;;;24.77;13.93;;;;;;;6.95;97.88;99644.88;5014202;28;20030;-84
2022/01/04 08:10:47;;;;;;;24.10;13.52;;;;;;;6.61;97.73;99593.25;5012868;28;20359;-79
2022/01/04 08:13:13;;;;;;;24.88;14.68;;;;;;;6.94;97.91;99646.63;5013458;28;20416;-81
2022/01/04 08:15:39;;;;;;;23.42;14.02;;;;;;;6.74;98.04;99606.06;5014174;28;20105;-78
2022/01/04 08:18:05;;;;;;;25.95;14.35;;;;;;;6.88;97.84;99640.16;5014243;28;20171;-79
2022/01/04 08:20:31;;;;;;;25.17;14.40;;;;;;;6.81;97.72;99633.78;5014320;28;20083;-77
2022/01/04 08:22:57;;;;;;;25.63;14.98;;;;;;;6.91;97.67;99654.53;5014233;28;20104;-76
2022/01/04 08:25:22;;;;;;;28.17;16.70;;;;;;;6.96;97.61;99664.47;5012585;28;20042;-79
2022/01/04 08:27:48;;;;;;;26.60;14.77;;;;;;;6.60;97.65;99599.31;5014033;28;20018;-79
2022/01/04 08:30:14;;;;;;;32.65;16.35;;;;;;;6.92;97.84;99650.22;5013980;28;20488;-78
2022/01/04 08:32:41;;;;;;;25.73;15.23;;;;;;;6.82;98.00;99635.44;5013161;28;20029;-77
2022/01/04 08:35:07;;;;;;;27.58;15.63;;;;;;;7.02;97.70;99664.09;5013713;28;20486;-78
2022/01/04 08:37:33;;;;;;;27.08;15.48;;;;;;;7.01;97.78;99668.41;5013617;28;20040;-79
2022/01/04 08:39:58;;;;;;;28.80;15.70;;;;;;;6.99;97.77;99670.25;4995736;28;20042;-81
2022/01/04 08:42:24;;;;;;;30.85;16.67;;;;;;;7.01;97.47;99668.41;5013684;28;20118;-77
2022/01/04 08:44:50;;;;;;;29.52;16.27;;;;;;;7.02;97.60;99670.03;5013701;28;20022;-81
2022/01/04 08:47:15;;;;;;;31.80;16.75;;;;;;;7.04;97.53;99682.75;5013673;28;20033;-79
2022/01/04 08:49:40;;;;;;;30.90;17.10;;;;;;;7.04;97.41;99687.91;5013657;28;20034;-82
2022/01/04 08:52:07;;;;;;;30.52;17.13;;;;;;;7.01;97.11;99683.78;5013523;28;20414;-79
2022/01/04 08:54:33;;;;;;;29.02;16.92;;;;;;;6.96;97.47;99683.25;5013626;28;20499;-80
2022/01/04 08:56:59;;;;;;;29.25;17.35;;;;;;;6.76;97.59;99646.09;5013550;28;20525;-81
2022/01/04 08:59:26;;;;;;;28.38;16.88;;;;;;;6.82;97.30;99657.72;5013432;28;20110;-79
2022/01/04 09:01:51;;;;;;;30.45;17.23;;;;;;;7.08;97.46;99686.75;5013428;28;20087;-81
2022/01/04 09:04:17;;;;;;;28.17;16.90;;;;;;;7.11;97.33;99692.53;5013253;28;20045;-79
2022/01/04 09:06:42;;;;;;;29.80;17.85;;;;;;;7.11;97.52;99681.44;5013789;28;20065;-80
2022/01/04 09:09:08;;;;;;;32.40;18.13;;;;;;;7.14;97.10;99684.59;5013479;28;20156;-84
2022/01/04 09:11:33;;;;;;;29.95;17.98;;;;;;;7.20;96.78;99683.41;5012999;28;20065;-82
2022/01/04 09:19:17;;;;;;;30.75;17.67;;;;;;;7.06;96.62;99638.09;5013466;28;20045;-87
2022/01/04 09:21:42;;;;;;;30.63;18.25;;;;;;;7.29;96.52;99671.69;5011745;28;20029;-85
2022/01/04 09:24:07;;;;;;;32.50;19.25;;;;;;;7.29;96.38;99669.94;5012825;28;20073;-86
2022/01/04 09:26:33;;;;;;;37.30;18.85;;;;;;;7.33;96.45;99675.66;5013003;28;20366;-86
2022/01/04 09:28:58;;;;;;;35.53;19.92;;;;;;;7.31;95.92;99682.66;5012666;28;20056;-83
2022/01/04 09:31:26;;;;;;;34.95;20.45;;;;;;;7.15;95.82;99670.84;5012998;28;20608;-86
2022/01/04 09:33:53;;;;;;;35.90;19.58;;;;;;;7.13;96.16;99670.13;5012910;28;20025;-86
2022/01/04 09:36:19;;;;;;;35.45;20.33;;;;;;;7.24;95.99;99691.69;5013124;28;20038;-88
2022/01/04 09:38:44;;;;;;;36.47;20.23;;;;;;;7.31;95.98;99698.06;5012945;28;20026;-85
2022/01/04 09:41:11;;;;;;;38.65;20.40;;;;;;;7.15;95.80;99672.59;5012933;28;20119;-89
2022/01/04 09:43:39;;;;;;;36.90;20.55;;;;;;;7.32;95.96;99697.97;5012471;28;20551;-87
2022/01/04 09:46:15;;;;;;;32.90;19.33;;;;;;;7.35;96.04;99700.31;5012708;28;20026;-86
2022/01/04 09:48:41;;;;;;;34.53;19.40;;;;;;;7.11;95.87;99668.59;5012665;28;20034;-85
2022/01/04 09:51:22;;;;;;;36.75;19.95;;;;;;;6.46;95.66;99555.78;5012954;28;20034;-78
2022/01/04 09:54:01;;;;;;;32.58;19.02;;;;;;;6.44;96.16;99549.94;5012872;28;20093;-87
2022/01/04 09:56:29;;;;;;;41.20;21.88;;;;;;;6.88;95.73;99608.53;5012855;28;20053;-88
2022/01/04 09:58:54;;;;;;;37.30;21.38;;;;;;;7.40;95.79;99680.28;5012630;28;20034;-89
2022/01/04 10:01:25;;;;;;;34.95;19.63;;;;;;;7.44;95.66;99683.47;5012840;28;20074;-88
2022/01/04 10:03:51;;;;;;;33.47;19.35;;;;;;;7.46;95.71;99687.56;5013364;28;20029;-90
2022/01/04 10:06:17;;;;;;;38.10;19.92;;;;;;;7.22;95.30;99647.34;5012759;28;20030;-91
2022/01/04 10:09:04;;;;;;;33.10;19.65;;;;;;;7.41;95.29;99671.66;5012813;28;20156;-82
2022/01/04 10:11:35;;;;;;;39.80;20.90;;;;;;;7.51;95.42;99686.44;5012825;28;20018;-87
2022/01/04 10:14:29;;;;;;;38.58;21.20;;;;;;;7.54;95.48;99691.38;5072922;23;20052;-84
2022/01/04 10:16:57;;;;;;;38.30;21.13;;;;;;;7.55;95.30;99675.03;5052458;28;20095;-85
2022/01/04 10:19:38;;;;;;;32.95;19.75;;;;;;;7.44;95.12;99650.91;5052224;28;20028;-85
2022/01/04 10:22:27;;;;;;;35.80;20.33;;;;;;;7.62;94.97;99659.09;5052224;28;20037;-86
2022/01/04 10:30:34;;;;;;;36.80;20.00;;;;;;;7.69;94.48;99641.50;5235355;23;20054;-83
2022/01/04 10:33:21;;;;;;;35.88;19.92;;;;;;;7.73;94.45;99646.31;5010428;28;20436;-88
2022/01/04 10:35:56;;;;;;;37.80;19.55;;;;;;;7.31;94.13;99575.63;5012473;28;20022;-85
2022/01/04 10:38:42;;;;;;;35.28;20.77;;;;;;;7.76;94.19;99653.78;5012599;28;20133;-86
2022/01/04 10:41:10;;;;;;;39.20;20.42;;;;;;;7.78;94.06;99632.34;5012297;28;20026;-86
2022/01/04 10:43:48;;;;;;;37.45;21.23;;;;;;;7.81;94.25;99642.38;5012218;28;20033;-86
2022/01/04 10:46:18;;;;;;;39.17;20.63;;;;;;;7.80;93.91;99648.47;5012511;28;20056;-88
2022/01/04 10:48:46;;;;;;;34.63;20.85;;;;;;;7.63;94.25;99621.38;5012146;28;20489;-86
2022/01/04 10:51:22;;;;;;;35.75;20.65;;;;;;;7.61;94.04;99607.81;5012311;28;20040;-79
2022/01/04 10:54:19;;;;;;;36.28;20.13;;;;;;;7.80;93.59;99635.59;5022002;23;20033;-80
2022/01/04 11:08:09;;;;;;;39.60;22.25;;;;;;;6.49;93.79;99441.00;5946082;22;20050;-86
2022/01/04 11:10:43;;;;;;;38.22;20.42;;;;;;;7.75;93.98;99647.00;5015434;28;20022;-84
2022/01/04 11:13:08;;;;;;;40.92;21.80;;;;;;;7.73;94.36;99648.88;5015701;28;20022;-88
2022/01/04 11:15:39;;;;;;;40.80;21.45;;;;;;;7.69;95.18;99657.75;5010177;28;20382;-89
2022/01/04 11:18:05;;;;;;;44.17;22.40;;;;;;;7.66;95.64;99645.09;4994727;28;20097;-88
2022/01/04 11:20:32;;;;;;;37.90;22.45;;;;;;;7.65;96.09;99651.16;4996742;28;20026;-93
2022/01/04 11:23:00;;;;;;;40.17;23.13;;;;;;;7.62;96.86;99656.53;4996080;28;20027;-91
2022/01/04 11:25:27;;;;;;;32.63;17.95;;;;;;;7.54;96.03;99657.97;4995832;28;20489;-91
2022/01/04 11:27:54;;;;;;;23.05;13.68;;;;;;;7.48;95.20;99661.81;5010517;28;20050;-92
2022/01/04 11:30:35;;;;;;;21.30;12.80;;;;;;;7.37;94.80;99669.38;4995832;28;20061;-93
2022/01/04 11:33:11;;;;;;;18.98;11.30;;;;;;;7.01;94.70;99631.66;4995522;28;20034;-86
2022/01/04 11:35:36;;;;;;;18.25;10.48;;;;;;;7.22;95.03;99667.88;4995495;28;20026;-88
2022/01/04 11:38:01;;;;;;;14.13;7.72;;;;;;;6.98;93.93;99657.50;4995609;28;20026;-85
2022/01/04 11:40:32;;;;;;;13.70;6.88;;;;;;;6.86;93.92;99647.13;4994928;28;20088;-90
2022/01/04 11:42:57;;;;;;;16.35;9.57;;;;;;;7.04;94.88;99682.75;4995441;28;20117;-90
2022/01/04 11:45:38;;;;;;;17.15;9.55;;;;;;;6.98;95.39;99689.13;4995442;28;20034;-91
2022/01/04 11:48:03;;;;;;;15.85;7.20;;;;;;;6.78;95.24;99669.06;4995544;28;20106;-89
2022/01/04 11:50:35;;;;;;;9.00;4.80;;;;;;;6.66;95.30;99669.88;4995576;28;20145;-88
2022/01/04 11:53:05;;;;;;;;;;;;;;;6.74;95.18;99686.44;5010749;28;20406;-92
2022/01/04 11:55:34;;;;;;;9.15;3.88;;;;;;;6.56;96.41;99685.88;4996425;28;20362;-91
2022/01/04 11:58:08;;;;;;;9.43;3.22;;;;;;;6.27;96.53;99646.72;4997227;28;20026;-88
2022/01/04 12:00:37;;;;;;;7.15;3.03;;;;;;;6.32;96.71;99667.75;4998435;28;20030;-88
2022/01/04 12:03:08;;;;;;;4.90;2.20;;;;;;;6.46;96.63;99699.38;4995593;28;20022;-92
2022/01/04 12:05:37;;;;;;;5.30;2.70;;;;;;;6.31;97.02;99668.69;4995803;28;20034;-88
2022/01/04 12:08:20;;;;;;;6.82;3.00;;;;;;;6.52;97.49;99694.69;4997541;28;20042;-90
2022/01/04 12:10:47;;;;;;;8.60;2.67;;;;;;;6.55;97.36;99693.66;5012737;28;20497;-89
2022/01/04 12:13:18;;;;;;;6.10;2.47;;;;;;;6.56;96.92;99687.63;5015281;28;20030;-88
2022/01/04 12:16:13;;;;;;;4.88;2.03;;;;;;;6.64;96.64;99694.81;5014649;28;20034;-90
2022/01/04 12:18:38;;;;;;;4.63;2.40;;;;;;;6.72;96.88;99690.03;5012165;28;20065;-86
2022/01/04 12:21:20;;;;;;;4.18;2.10;;;;;;;6.75;96.54;99689.81;5014420;28;20509;-86
2022/01/04 12:23:47;;;;;;;7.07;2.80;;;;;;;6.75;96.56;99685.50;5014324;28;20029;-95
2022/01/04 12:26:16;;;;;;;5.70;2.45;;;;;;;6.73;96.38;99678.84;5014747;28;20022;-90
2022/01/04 12:28:55;;;;;;;5.45;2.30;;;;;;;6.55;96.69;99658.59;5014612;28;20030;-91
2022/01/04 12:31:23;;;;;;;6.97;2.92;;;;;;;6.77;96.71;99687.97;5014506;28;20397;-91
2022/01/04 12:33:52;;;;;;;6.88;3.38;;;;;;;6.78;96.84;99687.03;5015173;28;20025;-90
2022/01/04 12:36:35;;;;;;;5.88;2.97;;;;;;;6.82;96.84;99685.94;5014656;28;20037;-95
2022/01/04 12:39:03;;;;;;;7.78;3.15;;;;;;;6.84;96.73;99686.66;5013364;28;20030;-94